^^
Station Historical Data
 
Daily Summary for November 19, 2017 Units:  Both    English   Metric
« Previous Day
Next Day »
Daily Weekly Monthly Yearly Custom
  Current: High: Low: Average:
Temperature: 66.8 °F /  19.3 °C 96.3 °F /  35.7 °C 45.0 °F /  7.2 °C 62.9 °F /  17.2 °C
Dew Point: 29.8 °F /  -1.2 °C 58.8 °F /  14.9 °C 11.4 °F /  -11.4 °C 24.6 °F /  -4.1 °C
Humidity: 25% 37% 16% 24%
Wind Speed: 0.0mph /  0km/h 0.0mph /  0km/h - 0mph /  0km/h
Wind Gust: 0.0mph /  0km/h 0.0mph /  0km/h - -
WindCalm - - North
Pressure: 29.97 in /  1014.8 hPa 30.13 in /  1020.2 hPa 29.81 in /  1009.4 hPa -
Precipitation: 0.00 in /  0 mm      
Historical Graphs
 
 
Tabular Data for November 19, 2017
Time Temperature Dew Point Pressure Wind Wind Speed Wind Gust Humidity Rainfall Rate (Hourly) solar Conditions
00:09 57.8 °F /  14.3 °C 19.1 °F /  -7.2 °C 30.10in /  1019.2hPa Calm     22% 0.00in /  0mm WeatherDisplay:10.37 W/m2 CLR
00:19 57.6 °F /  14.2 °C 20.0 °F /  -6.7 °C 30.10in /  1019.2hPa Calm     23% 0.00in /  0mm WeatherDisplay:10.37 W/m2 CLR
00:25 57.5 °F /  14.2 °C 19.9 °F /  -6.7 °C 30.10in /  1019.2hPa Calm     23% 0.00in /  0mm WeatherDisplay:10.37 W/m2 CLR
00:35 57.2 °F /  14 °C 19.7 °F /  -6.8 °C 30.09in /  1018.8hPa Calm     23% 0.00in /  0mm WeatherDisplay:10.37 W/m2 CLR
00:45 56.7 °F /  13.7 °C 19.3 °F /  -7.1 °C 30.09in /  1018.8hPa Calm     23% 0.00in /  0mm WeatherDisplay:10.37 W/m2 CLR
00:50 56.4 °F /  13.6 °C 19.0 °F /  -7.2 °C 30.09in /  1018.8hPa Calm     23% 0.00in /  0mm WeatherDisplay:10.37 W/m2 CLR
00:55 56.1 °F /  13.4 °C 16.6 °F /  -8.6 °C 30.09in /  1018.8hPa Calm     21% 0.00in /  0mm WeatherDisplay:10.37 W/m2 CLR
01:00 55.9 °F /  13.3 °C 15.3 °F /  -9.3 °C 30.09in /  1018.8hPa Calm     20% 0.00in /  0mm WeatherDisplay:10.37 W/m2 CLR
01:05 55.7 °F /  13.2 °C 14.0 °F /  -10 °C 30.09in /  1018.8hPa Calm     19% 0.00in /  0mm WeatherDisplay:10.37 W/m2 CLR
01:10 55.5 °F /  13.1 °C 13.8 °F /  -10.1 °C 30.09in /  1018.8hPa Calm     19% 0.00in /  0mm WeatherDisplay:10.37 W/m2 CLR
01:20 55.5 °F /  13.1 °C 12.6 °F /  -10.8 °C 30.08in /  1018.5hPa Calm     18% 0.00in /  0mm WeatherDisplay:10.37 W/m2 CLR
01:30 55.6 °F /  13.1 °C 11.4 °F /  -11.4 °C 30.08in /  1018.5hPa Calm     17% 0.00in /  0mm WeatherDisplay:10.37 W/m2 CLR
01:35 55.7 °F /  13.2 °C 11.5 °F /  -11.4 °C 30.08in /  1018.5hPa Calm     17% 0.00in /  0mm WeatherDisplay:10.37 W/m2 CLR
01:40 55.8 °F /  13.2 °C 11.6 °F /  -11.3 °C 30.08in /  1018.5hPa Calm     17% 0.00in /  0mm WeatherDisplay:10.37 W/m2 CLR
01:45 55.9 °F /  13.3 °C 11.6 °F /  -11.3 °C 30.08in /  1018.5hPa Calm     17% 0.00in /  0mm WeatherDisplay:10.37 W/m2 CLR
01:50 55.9 °F /  13.3 °C 11.6 °F /  -11.3 °C 30.08in /  1018.5hPa Calm     17% 0.00in /  0mm WeatherDisplay:10.37 W/m2 CLR
01:55 56.0 °F /  13.3 °C 13.0 °F /  -10.6 °C 30.08in /  1018.5hPa Calm     18% 0.00in /  0mm WeatherDisplay:10.37 W/m2 CLR
02:01 55.9 °F /  13.3 °C 14.2 °F /  -9.9 °C 30.08in /  1018.5hPa Calm     19% 0.00in /  0mm WeatherDisplay:10.37 W/m2 CLR
02:06 55.8 °F /  13.2 °C 14.1 °F /  -9.9 °C 30.08in /  1018.5hPa Calm     19% 0.00in /  0mm WeatherDisplay:10.37 W/m2 CLR
02:11 55.5 °F /  13.1 °C 13.8 °F /  -10.1 °C 30.08in /  1018.5hPa Calm     19% 0.00in /  0mm WeatherDisplay:10.37 W/m2 CLR
02:21 54.7 °F /  12.6 °C 16.5 °F /  -8.6 °C 30.07in /  1018.2hPa Calm     22% 0.00in /  0mm WeatherDisplay:10.37 W/m2 CLR
02:31 54.1 °F /  12.3 °C 16.0 °F /  -8.9 °C 30.07in /  1018.2hPa Calm     22% 0.00in /  0mm WeatherDisplay:10.37 W/m2 CLR
02:36 53.7 °F /  12.1 °C 16.7 °F /  -8.5 °C 30.07in /  1018.2hPa Calm     23% 0.00in /  0mm WeatherDisplay:10.37 W/m2 CLR
02:41 53.3 °F /  11.8 °C 17.4 °F /  -8.1 °C 30.07in /  1018.2hPa Calm     24% 0.00in /  0mm WeatherDisplay:10.37 W/m2 CLR
02:43 53.2 °F /  11.8 °C 18.2 °F /  -7.7 °C 30.07in /  1018.2hPa Calm     25% 0.00in /  0mm WeatherDisplay:10.37 W/m2 CLR
02:48 52.9 °F /  11.6 °C 18.9 °F /  -7.3 °C 30.07in /  1018.2hPa Calm     26% 0.00in /  0mm WeatherDisplay:10.37 W/m2 CLR
02:58 52.3 °F /  11.3 °C 17.5 °F /  -8.1 °C 30.07in /  1018.2hPa Calm     25% 0.00in /  0mm WeatherDisplay:10.37 W/m2 CLR
03:03 52.1 °F /  11.2 °C 18.2 °F /  -7.7 °C 30.07in /  1018.2hPa Calm     26% 0.00in /  0mm WeatherDisplay:10.37 W/m2 CLR
03:08 51.8 °F /  11 °C 18.8 °F /  -7.3 °C 30.07in /  1018.2hPa Calm     27% 0.00in /  0mm WeatherDisplay:10.37 W/m2 CLR
03:18 51.4 °F /  10.8 °C 18.5 °F /  -7.5 °C 30.07in /  1018.2hPa Calm     27% 0.00in /  0mm WeatherDisplay:10.37 W/m2 CLR
03:23 51.2 °F /  10.7 °C 18.3 °F /  -7.6 °C 30.07in /  1018.2hPa Calm     27% 0.00in /  0mm WeatherDisplay:10.37 W/m2 CLR
03:33 50.8 °F /  10.4 °C 18.8 °F /  -7.3 °C 30.07in /  1018.2hPa Calm     28% 0.00in /  0mm WeatherDisplay:10.37 W/m2 CLR
03:38 50.6 °F /  10.3 °C 19.5 °F /  -6.9 °C 30.07in /  1018.2hPa Calm     29% 0.00in /  0mm WeatherDisplay:10.37 W/m2 CLR
03:43 50.5 °F /  10.3 °C 19.4 °F /  -7 °C 30.07in /  1018.2hPa Calm     29% 0.00in /  0mm WeatherDisplay:10.37 W/m2 CLR
03:48 50.3 °F /  10.2 °C 19.2 °F /  -7.1 °C 30.07in /  1018.2hPa Calm     29% 0.00in /  0mm WeatherDisplay:10.37 W/m2 CLR
03:53 50.2 °F /  10.1 °C 19.1 °F /  -7.2 °C 30.07in /  1018.2hPa Calm     29% 0.00in /  0mm WeatherDisplay:10.37 W/m2 CLR
03:59 50.0 °F /  10 °C 18.9 °F /  -7.3 °C 30.07in /  1018.2hPa Calm     29% 0.00in /  0mm WeatherDisplay:10.37 W/m2 CLR
04:04 49.9 °F /  9.9 °C 18.9 °F /  -7.3 °C 30.07in /  1018.2hPa Calm     29% 0.00in /  0mm WeatherDisplay:10.37 W/m2 CLR
04:09 49.8 °F /  9.9 °C 19.6 °F /  -6.9 °C 30.07in /  1018.2hPa Calm     30% 0.00in /  0mm WeatherDisplay:10.37 W/m2 CLR
04:14 49.6 °F /  9.8 °C 19.4 °F /  -7 °C 30.07in /  1018.2hPa Calm     30% 0.00in /  0mm WeatherDisplay:10.37 W/m2 CLR
04:19 49.5 °F /  9.7 °C 19.3 °F /  -7.1 °C 30.07in /  1018.2hPa Calm     30% 0.00in /  0mm WeatherDisplay:10.37 W/m2 CLR
04:24 49.3 °F /  9.6 °C 19.9 °F /  -6.7 °C 30.07in /  1018.2hPa Calm     31% 0.00in /  0mm WeatherDisplay:10.37 W/m2 CLR
04:29 49.2 °F /  9.6 °C 19.8 °F /  -6.8 °C 30.07in /  1018.2hPa Calm     31% 0.00in /  0mm WeatherDisplay:10.37 W/m2 CLR
04:34 49.0 °F /  9.4 °C 19.6 °F /  -6.9 °C 30.07in /  1018.2hPa Calm     31% 0.00in /  0mm WeatherDisplay:10.37 W/m2 CLR
04:44 48.7 °F /  9.3 °C 19.4 °F /  -7 °C 30.06in /  1017.8hPa Calm     31% 0.00in /  0mm WeatherDisplay:10.37 W/m2 CLR
04:47 48.5 °F /  9.2 °C 19.9 °F /  -6.7 °C 30.06in /  1017.8hPa Calm     32% 0.00in /  0mm WeatherDisplay:10.37 W/m2 CLR
04:52 48.4 °F /  9.1 °C 19.9 °F /  -6.7 °C 30.06in /  1017.8hPa Calm     32% 0.00in /  0mm WeatherDisplay:10.37 W/m2 CLR
05:02 48.1 °F /  8.9 °C 19.6 °F /  -6.9 °C 30.07in /  1018.2hPa Calm     32% 0.00in /  0mm WeatherDisplay:10.37 W/m2 CLR
05:08 47.9 °F /  8.8 °C 19.4 °F /  -7 °C 30.07in /  1018.2hPa Calm     32% 0.00in /  0mm WeatherDisplay:10.37 W/m2 CLR
05:12 47.8 °F /  8.8 °C 19.3 °F /  -7.1 °C 30.07in /  1018.2hPa Calm     32% 0.00in /  0mm WeatherDisplay:10.37 W/m2 CLR
05:23 47.5 °F /  8.6 °C 19.8 °F /  -6.8 °C 30.07in /  1018.2hPa Calm     33% 0.00in /  0mm WeatherDisplay:10.37 W/m2 CLR
05:28 47.4 °F /  8.6 °C 19.0 °F /  -7.2 °C 30.07in /  1018.2hPa Calm     32% 0.00in /  0mm WeatherDisplay:10.37 W/m2 CLR
05:33 47.3 °F /  8.5 °C 19.6 °F /  -6.9 °C 30.07in /  1018.2hPa Calm     33% 0.00in /  0mm WeatherDisplay:10.37 W/m2 CLR
05:38 47.2 °F /  8.4 °C 19.5 °F /  -6.9 °C 30.07in /  1018.2hPa Calm     33% 0.00in /  0mm WeatherDisplay:10.37 W/m2 CLR
05:48 46.9 °F /  8.3 °C 18.5 °F /  -7.5 °C 30.07in /  1018.2hPa Calm     32% 0.00in /  0mm WeatherDisplay:10.37 W/m2 CLR
05:53 46.8 °F /  8.2 °C 18.5 °F /  -7.5 °C 30.07in /  1018.2hPa Calm     32% 0.00in /  0mm WeatherDisplay:10.37 W/m2 CLR
06:03 46.6 °F /  8.1 °C 18.3 °F /  -7.6 °C 30.08in /  1018.5hPa Calm     32% 0.00in /  0mm WeatherDisplay:10.37 W/m2 CLR
06:13 46.4 °F /  8 °C 18.8 °F /  -7.3 °C 30.08in /  1018.5hPa Calm     33% 0.00in /  0mm WeatherDisplay:10.37 W/m2 CLR
06:18 46.4 °F /  8 °C 19.5 °F /  -6.9 °C 30.08in /  1018.5hPa Calm     34% 0.00in /  0mm WeatherDisplay:10.37 W/m2 CLR
06:33 46.1 °F /  7.8 °C 18.6 °F /  -7.4 °C 30.08in /  1018.5hPa Calm     33% 0.00in /  0mm WeatherDisplay:10.37 W/m2 CLR
06:43 45.9 °F /  7.7 °C 19.1 °F /  -7.2 °C 30.09in /  1018.8hPa Calm     34% 0.00in /  0mm WeatherDisplay:10.37 W/m2 CLR
06:48 45.8 °F /  7.7 °C 19.0 °F /  -7.2 °C 30.09in /  1018.8hPa Calm     34% 0.00in /  0mm WeatherDisplay:10.37 W/m2 CLR
06:53 45.8 °F /  7.7 °C 19.0 °F /  -7.2 °C 30.09in /  1018.8hPa Calm     34% 0.00in /  0mm WeatherDisplay:10.37 W/m2 CLR
07:03 45.6 °F /  7.6 °C 19.5 °F /  -6.9 °C 30.09in /  1018.8hPa Calm     35% 0.00in /  0mm WeatherDisplay:10.37 W/m2 CLR
07:13 45.5 °F /  7.5 °C 19.4 °F /  -7 °C 30.10in /  1019.2hPa Calm     35% 0.00in /  0mm WeatherDisplay:10.37 W/m2 CLR
07:18 45.4 °F /  7.4 °C 19.3 °F /  -7.1 °C 30.10in /  1019.2hPa Calm     35% 0.00in /  0mm WeatherDisplay:10.37 W/m2 CLR
07:23 45.4 °F /  7.4 °C 19.3 °F /  -7.1 °C 30.10in /  1019.2hPa Calm     35% 0.00in /  0mm WeatherDisplay:10.37 W/m2 CLR
07:28 45.3 °F /  7.4 °C 19.2 °F /  -7.1 °C 30.11in /  1019.5hPa Calm     35% 0.00in /  0mm WeatherDisplay:10.37 W/m2 CLR
07:33 45.2 °F /  7.3 °C 19.1 °F /  -7.2 °C 30.11in /  1019.5hPa Calm     35% 0.00in /  0mm WeatherDisplay:10.37 W/m2 CLR
07:38 45.1 °F /  7.3 °C 19.0 °F /  -7.2 °C 30.11in /  1019.5hPa Calm     35% 0.00in /  0mm WeatherDisplay:10.37 W/m2 CLR
07:48 45.0 °F /  7.2 °C 19.6 °F /  -6.9 °C 30.11in /  1019.5hPa Calm     36% 0.00in /  0mm WeatherDisplay:10.37 W/m2 CLR
07:53 45.0 °F /  7.2 °C 19.6 °F /  -6.9 °C 30.11in /  1019.5hPa Calm     36% 0.00in /  0mm WeatherDisplay:10.37 W/m2 CLR
07:58 45.1 °F /  7.3 °C 20.3 °F /  -6.5 °C 30.11in /  1019.5hPa Calm     37% 0.00in /  0mm WeatherDisplay:10.37 W/m2 CLR
08:04 45.2 °F /  7.3 °C 20.4 °F /  -6.4 °C 30.11in /  1019.5hPa Calm     37% 0.00in /  0mm WeatherDisplay:10.37 W/m2 CLR
08:16 46.0 °F /  7.8 °C 20.5 °F /  -6.4 °C 30.13in /  1020.2hPa Calm     36% 0.00in /  0mm WeatherDisplay:10.37 W/m2 CLR
08:23 46.5 °F /  8.1 °C 21.6 °F /  -5.8 °C 30.13in /  1020.2hPa Calm     37% 0.00in /  0mm WeatherDisplay:10.37 W/m2 CLR
08:28 46.9 °F /  8.3 °C 22.0 °F /  -5.6 °C 30.13in /  1020.2hPa Calm     37% 0.00in /  0mm WeatherDisplay:10.37 W/m2 CLR
08:41 48.1 °F /  8.9 °C 23.0 °F /  -5 °C 30.13in /  1020.2hPa Calm     37% 0.00in /  0mm WeatherDisplay:10.37 W/m2 CLR
08:56 49.7 °F /  9.8 °C 23.8 °F /  -4.6 °C 30.13in /  1020.2hPa Calm     36% 0.00in /  0mm WeatherDisplay:10.37 W/m2 CLR
09:01 50.3 °F /  10.2 °C 23.7 °F /  -4.6 °C 30.13in /  1020.2hPa Calm     35% 0.00in /  0mm WeatherDisplay:10.37 W/m2 CLR
09:06 51.0 °F /  10.6 °C 24.3 °F /  -4.3 °C 30.13in /  1020.2hPa Calm     35% 0.00in /  0mm WeatherDisplay:10.37 W/m2 CLR
09:14 52.2 °F /  11.2 °C 24.6 °F /  -4.1 °C 30.13in /  1020.2hPa Calm     34% 0.00in /  0mm WeatherDisplay:10.37 W/m2 CLR
09:19 52.9 °F /  11.6 °C 23.8 °F /  -4.6 °C 30.13in /  1020.2hPa Calm     32% 0.00in /  0mm WeatherDisplay:10.37 W/m2 CLR
09:30 54.6 °F /  12.6 °C 24.5 °F /  -4.2 °C 30.13in /  1020.2hPa Calm     31% 0.00in /  0mm WeatherDisplay:10.37 W/m2 CLR
09:35 55.4 °F /  13 °C 23.6 °F /  -4.7 °C 30.13in /  1020.2hPa Calm     29% 0.00in /  0mm WeatherDisplay:10.37 W/m2 CLR
09:40 56.5 °F /  13.6 °C 23.7 °F /  -4.6 °C 30.13in /  1020.2hPa Calm     28% 0.00in /  0mm WeatherDisplay:10.37 W/m2 CLR
09:45 57.7 °F /  14.3 °C 23.9 °F /  -4.5 °C 30.13in /  1020.2hPa Calm     27% 0.00in /  0mm WeatherDisplay:10.37 W/m2 CLR
09:50 59.0 °F /  15 °C 24.1 °F /  -4.4 °C 30.13in /  1020.2hPa Calm     26% 0.00in /  0mm WeatherDisplay:10.37 W/m2 CLR
09:55 60.0 °F /  15.6 °C 24.0 °F /  -4.4 °C 30.13in /  1020.2hPa Calm     25% 0.00in /  0mm WeatherDisplay:10.37 W/m2 CLR
10:00 61.1 °F /  16.2 °C 25.0 °F /  -3.9 °C 30.12in /  1019.9hPa Calm     25% 0.00in /  0mm WeatherDisplay:10.37 W/m2 CLR
10:05 62.4 °F /  16.9 °C 25.1 °F /  -3.8 °C 30.12in /  1019.9hPa Calm     24% 0.00in /  0mm WeatherDisplay:10.37 W/m2 CLR
10:15 64.5 °F /  18.1 °C 24.8 °F /  -4 °C 30.11in /  1019.5hPa Calm     22% 0.00in /  0mm WeatherDisplay:10.37 W/m2 CLR
10:20 65.3 °F /  18.5 °C 25.4 °F /  -3.7 °C 30.11in /  1019.5hPa Calm     22% 0.00in /  0mm WeatherDisplay:10.37 W/m2 CLR
10:25 66.2 °F /  19 °C 26.2 °F /  -3.2 °C 30.11in /  1019.5hPa Calm     22% 0.00in /  0mm WeatherDisplay:10.37 W/m2 CLR
10:30 66.8 °F /  19.3 °C 25.6 °F /  -3.6 °C 30.11in /  1019.5hPa Calm     21% 0.00in /  0mm WeatherDisplay:10.37 W/m2 CLR
10:35 67.5 °F /  19.7 °C 26.2 °F /  -3.2 °C 30.11in /  1019.5hPa Calm     21% 0.00in /  0mm WeatherDisplay:10.37 W/m2 CLR
10:40 67.9 °F /  19.9 °C 25.3 °F /  -3.7 °C 30.11in /  1019.5hPa Calm     20% 0.00in /  0mm WeatherDisplay:10.37 W/m2 CLR
10:45 68.5 °F /  20.3 °C 25.8 °F /  -3.4 °C 30.10in /  1019.2hPa Calm     20% 0.00in /  0mm WeatherDisplay:10.37 W/m2 CLR
10:50 69.0 °F /  20.6 °C 26.2 °F /  -3.2 °C 30.10in /  1019.2hPa Calm     20% 0.00in /  0mm WeatherDisplay:10.37 W/m2 CLR
10:55 69.5 °F /  20.8 °C 26.6 °F /  -3 °C 30.10in /  1019.2hPa Calm     20% 0.00in /  0mm WeatherDisplay:10.37 W/m2 CLR
11:00 70.0 °F /  21.1 °C 27.0 °F /  -2.8 °C 30.09in /  1018.8hPa Calm     20% 0.00in /  0mm WeatherDisplay:10.37 W/m2 CLR
11:11 70.9 °F /  21.6 °C 27.8 °F /  -2.3 °C 30.09in /  1018.8hPa Calm     20% 0.00in /  0mm WeatherDisplay:10.37 W/m2 CLR
11:26 72.0 °F /  22.2 °C 28.7 °F /  -1.8 °C 30.07in /  1018.2hPa Calm     20% 0.00in /  0mm WeatherDisplay:10.37 W/m2 CLR
11:36 72.8 °F /  22.7 °C 28.1 °F /  -2.2 °C 30.07in /  1018.2hPa Calm     19% 0.00in /  0mm WeatherDisplay:10.37 W/m2 CLR
11:46 73.5 °F /  23.1 °C 28.7 °F /  -1.8 °C 30.06in /  1017.8hPa Calm     19% 0.00in /  0mm WeatherDisplay:10.37 W/m2 CLR
11:51 73.8 °F /  23.2 °C 28.9 °F /  -1.7 °C 30.06in /  1017.8hPa Calm     19% 0.00in /  0mm WeatherDisplay:10.37 W/m2 CLR
11:56 74.1 °F /  23.4 °C 29.2 °F /  -1.6 °C 30.04in /  1017.2hPa Calm     19% 0.00in /  0mm WeatherDisplay:10.37 W/m2 CLR
12:01 74.4 °F /  23.6 °C 29.4 °F /  -1.4 °C 30.04in /  1017.2hPa Calm     19% 0.00in /  0mm WeatherDisplay:10.37 W/m2 CLR
12:11 74.9 °F /  23.8 °C 29.8 °F /  -1.2 °C 30.03in /  1016.8hPa Calm     19% 0.00in /  0mm WeatherDisplay:10.37 W/m2 CLR
12:16 75.1 °F /  23.9 °C 28.7 °F /  -1.8 °C 30.03in /  1016.8hPa Calm     18% 0.00in /  0mm WeatherDisplay:10.37 W/m2 CLR
12:21 76.2 °F /  24.6 °C 29.6 °F /  -1.3 °C 30.03in /  1016.8hPa Calm     18% 0.00in /  0mm WeatherDisplay:10.37 W/m2 CLR
12:27 76.2 °F /  24.6 °C 29.6 °F /  -1.3 °C 30.02in /  1016.5hPa Calm     18% 0.00in /  0mm WeatherDisplay:10.37 W/m2 CLR
12:32 76.3 °F /  24.6 °C 29.7 °F /  -1.3 °C 30.02in /  1016.5hPa Calm     18% 0.00in /  0mm WeatherDisplay:10.37 W/m2 CLR
12:37 77.0 °F /  25 °C 30.2 °F /  -1 °C 30.02in /  1016.5hPa Calm     18% 0.00in /  0mm WeatherDisplay:10.37 W/m2 CLR
12:42 77.1 °F /  25.1 °C 28.9 °F /  -1.7 °C 30.02in /  1016.5hPa Calm     17% 0.00in /  0mm WeatherDisplay:10.37 W/m2 CLR
12:47 77.3 °F /  25.2 °C 29.1 °F /  -1.6 °C 30.02in /  1016.5hPa Calm     17% 0.00in /  0mm WeatherDisplay:10.37 W/m2 CLR
12:57 77.8 °F /  25.4 °C 30.9 °F /  -0.6 °C 30.00in /  1015.8hPa Calm     18% 0.00in /  0mm WeatherDisplay:10.37 W/m2 CLR
13:02 77.8 °F /  25.4 °C 29.5 °F /  -1.4 °C 30.00in /  1015.8hPa Calm     17% 0.00in /  0mm WeatherDisplay:10.37 W/m2 CLR
13:23 78.1 °F /  25.6 °C 31.1 °F /  -0.5 °C 30.00in /  1015.8hPa Calm     18% 0.00in /  0mm WeatherDisplay:10.37 W/m2 CLR
13:39 78.7 °F /  25.9 °C 28.7 °F /  -1.8 °C 29.99in /  1015.5hPa Calm     16% 0.00in /  0mm WeatherDisplay:10.37 W/m2 CLR
13:44 78.7 °F /  25.9 °C 28.7 °F /  -1.8 °C 29.97in /  1014.8hPa Calm     16% 0.00in /  0mm WeatherDisplay:10.37 W/m2 CLR
13:49 78.6 °F /  25.9 °C 30.1 °F /  -1.1 °C 29.97in /  1014.8hPa Calm     17% 0.00in /  0mm WeatherDisplay:10.37 W/m2 CLR
13:54 78.9 °F /  26.1 °C 30.4 °F /  -0.9 °C 29.97in /  1014.8hPa Calm     17% 0.00in /  0mm WeatherDisplay:10.37 W/m2 CLR
13:59 79.3 °F /  26.3 °C 32.1 °F /  0.1 °C 29.97in /  1014.8hPa Calm     18% 0.00in /  0mm WeatherDisplay:10.37 W/m2 CLR
14:04 79.2 °F /  26.2 °C 30.6 °F /  -0.8 °C 29.97in /  1014.8hPa Calm     17% 0.00in /  0mm WeatherDisplay:10.37 W/m2 CLR
14:09 79.0 °F /  26.1 °C 30.4 °F /  -0.9 °C 29.97in /  1014.8hPa Calm     17% 0.00in /  0mm WeatherDisplay:10.37 W/m2 CLR
14:14 79.1 °F /  26.2 °C 30.5 °F /  -0.8 °C 29.97in /  1014.8hPa Calm     17% 0.00in /  0mm WeatherDisplay:10.37 W/m2 CLR
14:19 79.1 °F /  26.2 °C 29.0 °F /  -1.7 °C 29.97in /  1014.8hPa Calm     16% 0.00in /  0mm WeatherDisplay:10.37 W/m2 CLR
14:29 79.5 °F /  26.4 °C 29.4 °F /  -1.4 °C 29.96in /  1014.4hPa Calm     16% 0.00in /  0mm WeatherDisplay:10.37 W/m2 CLR
14:35 79.8 °F /  26.6 °C 31.1 °F /  -0.5 °C 29.96in /  1014.4hPa Calm     17% 0.00in /  0mm WeatherDisplay:10.37 W/m2 CLR
14:40 79.8 °F /  26.6 °C 31.1 °F /  -0.5 °C 29.96in /  1014.4hPa Calm     17% 0.00in /  0mm WeatherDisplay:10.37 W/m2 CLR
14:55 79.8 °F /  26.6 °C 29.6 °F /  -1.3 °C 29.96in /  1014.4hPa Calm     16% 0.00in /  0mm WeatherDisplay:10.37 W/m2 CLR
15:05 79.7 °F /  26.5 °C 31.0 °F /  -0.6 °C 29.95in /  1014.1hPa Calm     17% 0.00in /  0mm WeatherDisplay:10.37 W/m2 CLR
15:10 79.8 °F /  26.6 °C 29.6 °F /  -1.3 °C 29.95in /  1014.1hPa Calm     16% 0.00in /  0mm WeatherDisplay:10.37 W/m2 CLR
15:20 79.9 °F /  26.6 °C 31.2 °F /  -0.4 °C 29.94in /  1013.8hPa Calm     17% 0.00in /  0mm WeatherDisplay:10.37 W/m2 CLR
15:25 79.8 °F /  26.6 °C 31.1 °F /  -0.5 °C 29.94in /  1013.8hPa Calm     17% 0.00in /  0mm WeatherDisplay:10.37 W/m2 CLR
15:30 79.8 °F /  26.6 °C 31.1 °F /  -0.5 °C 29.94in /  1013.8hPa Calm     17% 0.00in /  0mm WeatherDisplay:10.37 W/m2 CLR
15:40 79.7 °F /  26.5 °C 29.5 °F /  -1.4 °C 29.94in /  1013.8hPa Calm     16% 0.00in /  0mm WeatherDisplay:10.37 W/m2 CLR
15:50 79.8 °F /  26.6 °C 31.1 °F /  -0.5 °C 29.93in /  1013.4hPa Calm     17% 0.00in /  0mm WeatherDisplay:10.37 W/m2 CLR
16:01 79.8 °F /  26.6 °C 31.1 °F /  -0.5 °C 29.93in /  1013.4hPa Calm     17% 0.00in /  0mm WeatherDisplay:10.37 W/m2 CLR
16:04 79.7 °F /  26.5 °C 31.0 °F /  -0.6 °C 29.93in /  1013.4hPa Calm     17% 0.00in /  0mm WeatherDisplay:10.37 W/m2 CLR
16:14 79.7 °F /  26.5 °C 31.0 °F /  -0.6 °C 29.93in /  1013.4hPa Calm     17% 0.00in /  0mm WeatherDisplay:10.37 W/m2 CLR
16:19 79.6 °F /  26.4 °C 30.9 °F /  -0.6 °C 29.93in /  1013.4hPa Calm     17% 0.00in /  0mm WeatherDisplay:10.37 W/m2 CLR
16:24 79.5 °F /  26.4 °C 30.8 °F /  -0.7 °C 29.93in /  1013.4hPa Calm     17% 0.00in /  0mm WeatherDisplay:10.37 W/m2 CLR
16:29 79.3 °F /  26.3 °C 30.7 °F /  -0.7 °C 29.93in /  1013.4hPa Calm     17% 0.00in /  0mm WeatherDisplay:10.37 W/m2 CLR
16:34 79.2 °F /  26.2 °C 30.6 °F /  -0.8 °C 29.93in /  1013.4hPa Calm     17% 0.00in /  0mm WeatherDisplay:10.37 W/m2 CLR
16:39 79.0 °F /  26.1 °C 30.4 °F /  -0.9 °C 29.93in /  1013.4hPa Calm     17% 0.00in /  0mm WeatherDisplay:10.37 W/m2 CLR
16:44 78.7 °F /  25.9 °C 30.2 °F /  -1 °C 29.93in /  1013.4hPa Calm     17% 0.00in /  0mm WeatherDisplay:10.37 W/m2 CLR
16:50 78.7 °F /  25.9 °C 30.2 °F /  -1 °C 29.93in /  1013.4hPa Calm     17% 0.00in /  0mm WeatherDisplay:10.37 W/m2 CLR
16:55 78.6 °F /  25.9 °C 31.5 °F /  -0.3 °C 29.93in /  1013.4hPa Calm     18% 0.00in /  0mm WeatherDisplay:10.37 W/m2 CLR
17:00 78.3 °F /  25.7 °C 31.3 °F /  -0.4 °C 29.94in /  1013.8hPa Calm     18% 0.00in /  0mm WeatherDisplay:10.37 W/m2 CLR
17:10 77.8 °F /  25.4 °C 30.9 °F /  -0.6 °C 29.94in /  1013.8hPa Calm     18% 0.00in /  0mm WeatherDisplay:10.37 W/m2 CLR
17:15 77.5 °F /  25.3 °C 30.6 °F /  -0.8 °C 29.94in /  1013.8hPa Calm     18% 0.00in /  0mm WeatherDisplay:10.37 W/m2 CLR
17:20 77.2 °F /  25.1 °C 31.7 °F /  -0.2 °C 29.94in /  1013.8hPa Calm     19% 0.00in /  0mm WeatherDisplay:10.37 W/m2 CLR
17:23 76.9 °F /  24.9 °C 31.5 °F /  -0.3 °C 29.94in /  1013.8hPa Calm     19% 0.00in /  0mm WeatherDisplay:10.37 W/m2 CLR
17:33 76.1 °F /  24.5 °C 32.1 °F /  0.1 °C 29.94in /  1013.8hPa Calm     20% 0.00in /  0mm WeatherDisplay:10.37 W/m2 CLR
17:38 75.6 °F /  24.2 °C 32.9 °F /  0.5 °C 29.94in /  1013.8hPa Calm     21% 0.00in /  0mm WeatherDisplay:10.37 W/m2 CLR
17:43 75.1 °F /  23.9 °C 32.5 °F /  0.3 °C 29.95in /  1014.1hPa Calm     21% 0.00in /  0mm WeatherDisplay:10.37 W/m2 CLR
17:48 74.6 °F /  23.7 °C 32.1 °F /  0.1 °C 29.95in /  1014.1hPa Calm     21% 0.00in /  0mm WeatherDisplay:10.37 W/m2 CLR
17:54 74.2 °F /  23.4 °C 32.9 °F /  0.5 °C 29.95in /  1014.1hPa Calm     22% 0.00in /  0mm WeatherDisplay:10.37 W/m2 CLR
17:59 73.6 °F /  23.1 °C 33.5 °F /  0.8 °C 29.95in /  1014.1hPa Calm     23% 0.00in /  0mm WeatherDisplay:10.37 W/m2 CLR
18:09 72.4 °F /  22.4 °C 31.4 °F /  -0.3 °C 29.95in /  1014.1hPa Calm     22% 0.00in /  0mm WeatherDisplay:10.37 W/m2 CLR
18:19 71.3 °F /  21.8 °C 32.6 °F /  0.3 °C 29.96in /  1014.4hPa Calm     24% 0.00in /  0mm WeatherDisplay:10.37 W/m2 CLR
18:24 70.8 °F /  21.6 °C 32.2 °F /  0.1 °C 29.96in /  1014.4hPa Calm     24% 0.00in /  0mm WeatherDisplay:10.37 W/m2 CLR
18:35 96.3 °F /  35.7 °C 58.8 °F /  14.9 °C 29.81in /  1009.4hPa Calm     29% 0.00in /  0mm WeatherDisplay:10.37 W/m2 CLR
18:39 96.3 °F /  35.7 °C 58.8 °F /  14.9 °C 29.81in /  1009.4hPa Calm     29% 0.00in /  0mm WeatherDisplay:10.37 W/m2 CLR
18:40 96.3 °F /  35.7 °C 58.8 °F /  14.9 °C 29.81in /  1009.4hPa Calm     29% 0.00in /  0mm WeatherDisplay:10.37 W/m2 CLR
18:45 68.7 °F /  20.4 °C 30.4 °F /  -0.9 °C 29.97in /  1014.8hPa Calm     24% 0.00in /  0mm WeatherDisplay:10.37 W/m2 CLR
18:55 67.7 °F /  19.8 °C 30.6 °F /  -0.8 °C 29.97in /  1014.8hPa Calm     25% 0.00in /  0mm WeatherDisplay:10.37 W/m2 CLR
19:00 67.2 °F /  19.6 °C 30.2 °F /  -1 °C 29.97in /  1014.8hPa Calm     25% 0.00in /  0mm WeatherDisplay:10.37 W/m2 CLR
19:05 66.8 °F /  19.3 °C 29.8 °F /  -1.2 °C 29.97in /  1014.8hPa Calm     25% 0.00in /  0mm WeatherDisplay:10.37 W/m2 CLR
Youngtown, Arizona, USA
Compliments of Weather Underground - 3 mb